Time;durP1;ratioP1;P1;durP2;ratioP2;P2;SDS_P1;SDS_P2;PMS_P1;PMS_P2;Temp;Humidity;BMP_temperature;BMP_pressure;BME280_temperature;BME280_humidity;BME280_pressure;Samples;Min_cycle;Max_cycle;Signal;HPM_P1;HPM_P2
2021/10/19 00:02:43;;;;;;;74.57;34.80;;;;;;;7.22;66.32;100619.75;10343780;28;20058;-61
2021/10/19 00:07:45;;;;;;;84.13;37.88;;;;;;;7.24;66.13;100628.38;10343574;28;20064;-61
2021/10/19 00:12:47;;;;;;;86.05;37.85;;;;;;;7.16;66.33;100623.41;10344047;28;20077;-61
2021/10/19 00:17:49;;;;;;;66.43;32.85;;;;;;;7.10;66.59;100621.03;10343827;28;20050;-61
2021/10/19 00:22:50;;;;;;;66.10;33.97;;;;;;;7.22;66.71;100616.31;10342956;28;20050;-61
2021/10/19 00:27:53;;;;;;;66.20;35.33;;;;;;;7.36;66.52;100609.72;10343889;28;20062;-61
2021/10/19 00:32:54;;;;;;;61.65;33.47;;;;;;;7.41;66.45;100609.53;10343151;28;20054;-61
2021/10/19 00:37:56;;;;;;;68.18;34.90;;;;;;;7.51;66.29;100606.53;10346408;28;20490;-61
2021/10/19 00:42:58;;;;;;;60.42;32.00;;;;;;;7.58;65.99;100605.44;10351090;28;20049;-60
2021/10/19 00:48:00;;;;;;;75.18;36.95;;;;;;;7.59;66.11;100607.09;10351460;28;20064;-61
2021/10/19 00:53:02;;;;;;;75.40;37.88;;;;;;;7.57;66.00;100598.50;10350900;28;20050;-61
2021/10/19 00:58:06;;;;;;;69.75;36.85;;;;;;;7.44;66.21;100594.66;10350993;28;20135;-61
2021/10/19 01:03:07;;;;;;;60.92;33.42;;;;;;;7.51;66.38;100585.72;10350466;28;20153;-61
2021/10/19 01:08:10;;;;;;;69.22;34.53;;;;;;;7.59;66.16;100583.69;10350539;28;20395;-60
2021/10/19 01:13:12;;;;;;;75.45;37.90;;;;;;;7.62;66.07;100587.94;10348712;28;20061;-61
2021/10/19 01:18:15;;;;;;;86.53;39.03;;;;;;;7.47;66.10;100585.91;10349460;28;20064;-60
2021/10/19 01:23:17;;;;;;;78.43;37.70;;;;;;;7.36;66.51;100578.50;10350314;28;20053;-61
2021/10/19 01:28:19;;;;;;;63.85;34.42;;;;;;;7.43;66.59;100561.72;10350099;28;20076;-61
2021/10/19 01:33:23;;;;;;;74.95;34.58;;;;;;;7.51;66.22;100549.28;10348617;28;20041;-61
2021/10/19 01:38:28;;;;;;;81.97;39.20;;;;;;;7.53;66.09;100539.66;10349211;28;20167;-61
2021/10/19 01:43:30;;;;;;;73.80;36.50;;;;;;;7.35;66.52;100542.94;10348004;28;20046;-60
2021/10/19 01:48:33;;;;;;;62.05;33.47;;;;;;;7.44;66.65;100540.03;10348352;28;20054;-61
2021/10/19 01:53:35;;;;;;;74.78;36.97;;;;;;;7.46;66.39;100534.75;10348510;28;21280;-61
2021/10/19 01:58:37;;;;;;;65.00;34.80;;;;;;;7.51;66.36;100523.25;10349221;28;20064;-61
2021/10/19 02:03:39;;;;;;;74.57;35.75;;;;;;;7.59;66.17;100518.59;10352764;28;20045;-61
2021/10/19 02:08:40;;;;;;;57.15;30.98;;;;;;;7.61;66.12;100522.00;10355258;28;20045;-61
2021/10/19 02:13:42;;;;;;;76.18;36.33;;;;;;;7.66;66.01;100521.81;10355594;28;20819;-60
2021/10/19 02:18:44;;;;;;;73.60;36.08;;;;;;;7.61;66.18;100522.00;10355353;28;20643;-61
2021/10/19 02:23:45;;;;;;;77.20;36.83;;;;;;;7.61;66.25;100521.16;10354987;28;20578;-61
2021/10/19 02:28:47;;;;;;;66.28;34.28;;;;;;;7.70;66.25;100521.66;10354453;28;20050;-61
2021/10/19 02:33:49;;;;;;;67.40;33.20;;;;;;;7.75;65.98;100514.50;10353436;28;20050;-61
2021/10/19 02:38:50;;;;;;;86.95;38.25;;;;;;;7.75;66.01;100500.66;10354615;28;20064;-61
2021/10/19 02:43:53;;;;;;;76.15;37.17;;;;;;;7.79;65.97;100508.25;10354287;28;20053;-61
2021/10/19 02:48:55;;;;;;;69.80;35.05;;;;;;;7.81;65.88;100496.03;10354373;28;20133;-61
2021/10/19 02:53:57;;;;;;;67.30;34.53;;;;;;;7.80;66.10;100494.34;10353837;28;20418;-61
2021/10/19 02:58:58;;;;;;;59.00;31.33;;;;;;;7.79;66.18;100502.22;10352786;28;20050;-61
2021/10/19 03:04:00;;;;;;;59.92;33.50;;;;;;;7.84;66.26;100501.13;10348838;28;20135;-61
2021/10/19 03:09:02;;;;;;;51.85;30.58;;;;;;;7.88;66.13;100510.53;10348217;28;20116;-61
2021/10/19 03:14:04;;;;;;;71.07;34.50;;;;;;;7.87;66.19;100508.84;10345741;28;20072;-61
2021/10/19 03:19:06;;;;;;;62.60;32.80;;;;;;;7.91;66.25;100502.59;10346648;28;20141;-60
2021/10/19 03:24:07;;;;;;;58.58;31.88;;;;;;;7.95;66.04;100503.31;10346194;28;20054;-60
2021/10/19 03:29:09;;;;;;;82.90;37.28;;;;;;;7.97;65.99;100501.50;10346052;28;20557;-61
2021/10/19 03:34:11;;;;;;;60.05;32.28;;;;;;;7.97;66.34;100502.34;10344473;28;20058;-61
2021/10/19 03:39:13;;;;;;;57.22;31.77;;;;;;;8.07;66.25;100499.38;10344729;28;20054;-61
2021/10/19 03:44:15;;;;;;;67.90;33.65;;;;;;;8.10;66.28;100502.72;10344889;28;20053;-60
2021/10/19 03:49:17;;;;;;;61.13;32.95;;;;;;;8.17;66.25;100493.75;10345631;28;20129;-60
2021/10/19 03:54:18;;;;;;;61.70;31.95;;;;;;;8.16;66.28;100494.66;10344602;28;20405;-61
2021/10/19 03:59:20;;;;;;;65.78;32.97;;;;;;;8.21;66.48;100491.88;10343999;28;20060;-61
2021/10/19 04:04:22;;;;;;;53.55;29.38;;;;;;;8.27;66.18;100489.00;10344151;28;20060;-61
2021/10/19 04:09:24;;;;;;;57.72;31.80;;;;;;;8.21;66.40;100490.13;10344077;28;20054;-61
2021/10/19 04:14:26;;;;;;;54.28;30.20;;;;;;;8.25;66.44;100489.06;10342627;28;20075;-61
2021/10/19 04:19:27;;;;;;;58.95;32.00;;;;;;;8.32;66.47;100484.47;10341694;28;20058;-61
2021/10/19 04:24:29;;;;;;;58.88;32.05;;;;;;;8.32;66.61;100487.06;10343322;28;20054;-61
2021/10/19 04:29:31;;;;;;;60.15;33.55;;;;;;;8.38;66.62;100486.81;10339775;28;20517;-61
2021/10/19 04:34:33;;;;;;;54.97;31.05;;;;;;;8.41;66.53;100491.88;10340218;28;20211;-61
2021/10/19 04:39:35;;;;;;;62.03;32.28;;;;;;;8.46;66.56;100485.59;10344099;28;20056;-62
2021/10/19 04:44:37;;;;;;;104.00;40.92;;;;;;;8.42;66.67;100477.94;10342573;28;20161;-60
2021/10/19 04:49:38;;;;;;;71.60;35.92;;;;;;;8.21;67.01;100477.09;10339705;28;20494;-61
2021/10/19 04:54:40;;;;;;;58.85;31.23;;;;;;;8.15;67.38;100474.72;10341483;28;20056;-61
2021/10/19 04:59:42;;;;;;;67.80;34.63;;;;;;;8.18;67.35;100481.59;10340714;28;20060;-61
2021/10/19 05:04:43;;;;;;;56.58;32.47;;;;;;;8.11;67.32;100469.72;10341626;28;20223;-61
2021/10/19 05:09:45;;;;;;;73.20;36.80;;;;;;;7.96;67.70;100461.56;10342939;28;20428;-61
2021/10/19 05:14:47;;;;;;;99.68;41.75;;;;;;;7.95;68.01;100469.47;10342401;28;20076;-61
2021/10/19 05:19:48;;;;;;;64.90;35.15;;;;;;;8.01;68.06;100462.25;10342628;28;20058;-61
2021/10/19 05:24:50;;;;;;;112.30;42.85;;;;;;;8.17;67.85;100459.03;10345734;28;20060;-61
2021/10/19 05:29:52;;;;;;;79.57;36.72;;;;;;;8.20;67.76;100458.91;10349492;28;20050;-61
2021/10/19 05:34:53;;;;;;;62.70;33.75;;;;;;;8.28;67.87;100455.06;10349653;28;20060;-61
2021/10/19 05:39:55;;;;;;;70.95;36.00;;;;;;;8.37;67.66;100453.81;10349198;28;20049;-61
2021/10/19 05:45:17;;;;;;;79.13;37.10;;;;;;;8.40;67.65;100451.97;10349849;28;20053;-61
2021/10/19 05:50:19;;;;;;;71.30;36.22;;;;;;;8.47;67.62;100442.09;10349065;28;20486;-61
2021/10/19 05:55:21;;;;;;;52.15;31.40;;;;;;;8.46;67.63;100438.66;10349336;28;20056;-61
2021/10/19 06:00:22;;;;;;;66.40;34.13;;;;;;;8.53;67.71;100439.22;10348607;28;20068;-61
2021/10/19 06:05:24;;;;;;;47.42;29.35;;;;;;;8.57;67.45;100428.59;10347047;28;20093;-61
2021/10/19 06:10:26;;;;;;;60.10;33.22;;;;;;;8.61;67.28;100430.16;10348002;28;20056;-61
2021/10/19 06:15:27;;;;;;;51.10;31.08;;;;;;;8.62;67.31;100426.66;10347685;28;20146;-61
2021/10/19 06:20:30;;;;;;;47.85;29.73;;;;;;;8.63;67.29;100417.91;10347912;28;20049;-61
2021/10/19 06:25:32;;;;;;;81.00;36.80;;;;;;;8.73;67.43;100410.50;10347392;28;20564;-61
2021/10/19 06:30:34;;;;;;;66.10;33.88;;;;;;;8.78;67.24;100404.19;10346661;28;20457;-61
2021/10/19 06:35:36;;;;;;;94.97;40.97;;;;;;;8.82;67.05;100395.31;10346205;28;20049;-61
2021/10/19 06:40:38;;;;;;;77.10;38.17;;;;;;;8.87;67.06;100396.88;10347817;28;20049;-61
2021/10/19 06:45:40;;;;;;;53.88;33.83;;;;;;;8.90;67.00;100394.97;10348045;28;20064;-62
2021/10/19 06:50:42;;;;;;;95.78;39.92;;;;;;;8.95;67.04;100384.31;10345675;28;20073;-61
2021/10/19 06:55:44;;;;;;;75.68;42.35;;;;;;;8.95;67.18;100384.31;10347702;28;20057;-61
2021/10/19 07:00:46;;;;;;;78.18;38.13;;;;;;;8.96;67.25;100386.00;10347302;28;20049;-62
2021/10/19 07:05:48;;;;;;;57.70;32.40;;;;;;;9.03;67.09;100385.66;10347754;28;20054;-62
2021/10/19 07:10:49;;;;;;;56.38;31.42;;;;;;;9.11;66.90;100391.38;10345728;28;20049;-62
2021/10/19 07:15:53;;;;;;;44.95;27.85;;;;;;;9.18;66.77;100382.34;10346781;28;20541;-62
2021/10/19 07:20:55;;;;;;;53.58;31.10;;;;;;;9.29;66.79;100381.84;10346594;28;20505;-62
2021/10/19 07:25:57;;;;;;;49.05;30.17;;;;;;;9.39;66.64;100383.94;10346525;28;20754;-62
2021/10/19 07:30:59;;;;;;;50.97;30.08;;;;;;;9.44;66.37;100387.16;10346297;28;20049;-62
2021/10/19 07:36:00;;;;;;;49.85;29.25;;;;;;;9.43;66.60;100395.94;10345528;28;20046;-62
2021/10/19 07:41:02;;;;;;;65.32;35.03;;;;;;;9.29;66.92;100393.13;10345686;28;20603;-62
2021/10/19 07:46:04;;;;;;;51.38;32.08;;;;;;;9.29;67.01;100403.56;10345576;28;20554;-62
2021/10/19 07:51:05;;;;;;;59.58;32.28;;;;;;;9.38;67.26;100397.91;10341389;28;21546;-62
2021/10/19 07:56:07;;;;;;;46.35;28.67;;;;;;;9.49;67.02;100406.06;10341133;28;20060;-62
2021/10/19 08:01:09;;;;;;;53.38;29.90;;;;;;;9.57;67.24;100401.34;10343388;28;20080;-62
2021/10/19 08:06:10;;;;;;;54.88;30.92;;;;;;;9.71;66.85;100394.66;10344497;28;20396;-62
2021/10/19 08:11:12;;;;;;;65.10;34.65;;;;;;;9.76;66.73;100395.25;10344251;28;20065;-62
2021/10/19 08:16:14;;;;;;;84.15;38.72;;;;;;;9.77;66.72;100394.34;10343982;28;20062;-67
2021/10/19 08:21:16;;;;;;;56.20;32.90;;;;;;;9.82;66.73;100402.78;10343339;28;20056;-67
2021/10/19 08:26:17;;;;;;;66.47;35.22;;;;;;;9.88;66.71;100399.88;10344696;28;20056;-67
2021/10/19 08:31:21;;;;;;;66.75;36.17;;;;;;;9.94;66.83;100408.25;10344827;28;20406;-67
2021/10/19 08:36:23;;;;;;;56.63;34.03;;;;;;;10.05;66.59;100408.59;10344274;28;20149;-67
2021/10/19 08:41:30;;;;;;;53.72;32.85;;;;;;;10.19;66.48;100405.25;10344789;28;20152;-67
2021/10/19 08:46:32;;;;;;;58.60;34.17;;;;;;;10.21;66.50;100411.25;10343009;28;20096;-67
2021/10/19 08:51:36;;;;;;;64.35;36.83;;;;;;;10.38;66.48;100392.91;10344754;28;20049;-67
2021/10/19 08:56:39;;;;;;;54.47;32.95;;;;;;;10.53;66.22;100394.75;10344606;28;20046;-67
2021/10/19 09:01:41;;;;;;;59.30;35.15;;;;;;;10.66;66.02;100398.44;10351932;28;20057;-67
2021/10/19 09:06:45;;;;;;;61.08;35.30;;;;;;;10.75;66.00;100392.69;10352008;28;20967;-67
2021/10/19 09:11:48;;;;;;;66.03;35.92;;;;;;;10.76;66.10;100390.94;10350528;28;20619;-67
2021/10/19 09:16:51;;;;;;;63.35;35.28;;;;;;;10.73;66.35;100391.06;10350985;28;20053;-67
2021/10/19 09:22:02;;;;;;;68.35;36.67;;;;;;;10.76;66.46;100383.94;10351805;28;20085;-67
2021/10/19 09:27:15;;;;;;;86.70;40.38;;;;;;;10.75;66.60;100386.63;10351544;28;20096;-67
2021/10/19 09:32:18;;;;;;;83.90;40.30;;;;;;;10.75;66.71;100395.31;10350185;28;20045;-68
2021/10/19 09:37:22;;;;;;;73.20;36.92;;;;;;;10.89;66.46;100394.59;10351241;28;20046;-67
2021/10/19 09:42:26;;;;;;;64.30;35.15;;;;;;;10.81;66.63;100392.38;10350706;28;20046;-67
2021/10/19 09:47:36;;;;;;;55.42;34.22;;;;;;;10.75;66.63;100371.78;10349558;28;21147;-67
2021/10/19 09:52:38;;;;;;;57.88;33.75;;;;;;;10.76;66.95;100380.47;10349306;28;20053;-67
2021/10/19 09:57:43;;;;;;;75.15;37.65;;;;;;;10.92;66.78;100384.81;10350515;28;20052;-67
2021/10/19 10:02:46;;;;;;;63.60;35.28;;;;;;;10.93;67.02;100388.28;10349190;28;20046;-67
2021/10/19 10:07:48;;;;;;;67.75;36.25;;;;;;;11.11;67.14;100382.88;10349498;28;20050;-67
2021/10/19 10:13:12;;;;;;;55.20;33.30;;;;;;;11.13;66.84;100382.84;10331853;28;20079;-67
2021/10/19 10:18:14;;;;;;;48.13;30.38;;;;;;;11.20;66.92;100392.03;10349303;28;20089;-67
2021/10/19 10:23:19;;;;;;;60.55;34.97;;;;;;;11.42;66.96;100392.50;10349724;28;20528;-68
2021/10/19 10:28:34;;;;;;;71.88;38.97;;;;;;;11.55;66.70;100385.66;10348651;28;20060;-67
2021/10/19 10:33:38;;;;;;;55.10;33.15;;;;;;;11.71;66.52;100378.63;10348603;28;20076;-67
2021/10/19 10:38:57;;;;;;;46.58;29.38;;;;;;;11.78;66.33;100385.22;10348383;28;21094;-67
2021/10/19 10:44:00;;;;;;;65.43;38.15;;;;;;;11.84;66.35;100381.38;10348234;28;20046;-67
2021/10/19 10:49:02;;;;;;;62.10;35.63;;;;;;;11.90;66.51;100374.03;10379358;28;20064;-67
2021/10/19 10:54:05;;;;;;;75.15;40.20;;;;;;;11.98;66.27;100378.81;10348079;28;20060;-67
2021/10/19 10:59:07;;;;;;;78.55;39.75;;;;;;;11.99;66.40;100372.63;10346239;28;20037;-67
2021/10/19 11:04:10;;;;;;;59.15;34.35;;;;;;;12.02;66.38;100356.72;10345654;28;20128;-67
2021/10/19 11:09:15;;;;;;;79.13;38.95;;;;;;;12.10;66.55;100351.88;10347056;28;20054;-68
2021/10/19 11:14:20;;;;;;;76.60;39.13;;;;;;;12.11;66.52;100358.78;10346727;28;20145;-67
2021/10/19 11:19:25;;;;;;;68.53;36.65;;;;;;;12.05;66.58;100362.63;10346675;28;20978;-67
2021/10/19 11:24:29;;;;;;;58.88;33.65;;;;;;;12.04;66.74;100360.94;10345790;28;20050;-67
2021/10/19 11:29:34;;;;;;;70.97;37.67;;;;;;;12.04;66.86;100350.47;10346233;28;20060;-68
2021/10/19 11:34:36;;;;;;;71.63;36.92;;;;;;;12.00;67.08;100354.19;10346526;28;20056;-67
2021/10/19 11:39:38;;;;;;;74.63;38.53;;;;;;;12.00;67.08;100348.97;10346233;28;20177;-67
2021/10/19 11:44:39;;;;;;;57.85;32.40;;;;;;;11.99;67.14;100342.00;10345643;28;20457;-67
2021/10/19 11:49:41;;;;;;;66.53;36.05;;;;;;;12.06;67.08;100343.34;10345656;28;20068;-67
2021/10/19 11:54:43;;;;;;;66.55;35.75;;;;;;;12.04;67.42;100332.13;10343737;28;20223;-67
2021/10/19 11:59:48;;;;;;;102.43;44.70;;;;;;;12.07;67.39;100323.19;10344903;28;20574;-67
2021/10/19 12:04:50;;;;;;;191.80;44.38;;;;;;;12.05;67.42;100319.81;10345687;28;20046;-67
2021/10/19 12:09:52;;;;;;;71.80;39.50;;;;;;;12.09;67.51;100318.72;10344591;28;20127;-67
2021/10/19 12:14:55;;;;;;;77.38;41.30;;;;;;;12.19;67.35;100314.63;10345266;28;20066;-67
2021/10/19 12:19:57;;;;;;;77.03;40.50;;;;;;;12.36;67.38;100288.22;10345530;28;20042;-67
2021/10/19 12:25:01;;;;;;;64.75;34.22;;;;;;;12.61;66.72;100295.44;10345278;28;20516;-67
2021/10/19 12:30:14;;;;;;;46.42;30.52;;;;;;;12.89;66.53;100292.75;10344862;28;20060;-67
2021/10/19 12:35:16;;;;;;;43.10;28.05;;;;;;;13.08;66.17;100281.94;10350047;28;20093;-68
2021/10/19 12:40:20;;;;;;;48.42;29.83;;;;;;;13.15;66.15;100267.47;10351123;28;20054;-67
2021/10/19 12:45:21;;;;;;;58.05;31.58;;;;;;;13.15;66.43;100267.47;10353040;28;20077;-67
2021/10/19 12:50:23;;;;;;;49.13;30.75;;;;;;;13.20;66.24;100262.75;10352128;28;20496;-67
2021/10/19 12:55:25;;;;;;;42.17;27.38;;;;;;;13.18;66.26;100259.38;10352311;28;20137;-67
2021/10/19 13:00:27;;;;;;;34.97;24.58;;;;;;;13.23;65.74;100247.63;10352929;28;20083;-67
2021/10/19 13:05:29;;;;;;;49.75;28.73;;;;;;;13.47;65.80;100253.94;10349804;28;20045;-67
2021/10/19 13:10:31;;;;;;;48.85;31.33;;;;;;;13.67;65.63;100249.97;10346407;28;20092;-68
2021/10/19 13:15:33;;;;;;;25.90;18.63;;;;;;;13.66;65.40;100250.91;10351198;28;20054;-67
2021/10/19 13:20:56;;;;;;;32.72;20.33;;;;;;;13.72;65.75;100246.06;10350498;28;20061;-68
2021/10/19 13:25:57;;;;;;;27.95;19.63;;;;;;;13.62;65.83;100242.38;10349082;28;20784;-68
2021/10/19 13:30:59;;;;;;;26.27;19.45;;;;;;;13.52;66.58;100235.22;10344943;28;20501;-68
2021/10/19 13:36:02;;;;;;;29.20;19.48;;;;;;;13.70;66.25;100221.69;10348668;28;20056;-68
2021/10/19 13:41:04;;;;;;;29.55;20.65;;;;;;;13.94;65.92;100221.81;10347507;28;20054;-68
2021/10/19 13:46:06;;;;;;;37.47;24.48;;;;;;;13.98;65.96;100230.31;10349566;28;20054;-68
2021/10/19 13:51:08;;;;;;;31.95;22.88;;;;;;;13.96;66.23;100230.44;10343846;28;20552;-68
2021/10/19 13:56:09;;;;;;;28.60;20.90;;;;;;;13.93;66.55;100228.00;10345387;28;20050;-68
2021/10/19 14:01:14;;;;;;;30.33;20.17;;;;;;;14.01;66.59;100225.69;10345023;28;20054;-68
2021/10/19 14:06:16;;;;;;;40.22;24.15;;;;;;;14.07;66.64;100217.38;10345281;28;20145;-67
2021/10/19 14:11:18;;;;;;;36.60;23.65;;;;;;;14.08;66.60;100219.06;10344647;28;20478;-67
2021/10/19 14:16:24;;;;;;;28.60;19.52;;;;;;;14.11;66.50;100213.56;10348034;28;20060;-67
2021/10/19 14:21:26;;;;;;;28.85;19.88;;;;;;;14.19;66.36;100216.50;10344508;28;20115;-67
2021/10/19 14:26:28;;;;;;;25.52;18.77;;;;;;;14.23;66.41;100212.72;10346366;28;20054;-67
2021/10/19 14:31:30;;;;;;;29.98;20.90;;;;;;;14.34;66.60;100207.56;10345926;28;20057;-67
2021/10/19 14:36:32;;;;;;;27.10;18.95;;;;;;;14.32;66.39;100205.97;10345099;28;20966;-67
2021/10/19 14:41:33;;;;;;;32.00;23.15;;;;;;;14.29;66.81;100193.88;10344238;28;20701;-67
2021/10/19 14:46:38;;;;;;;24.75;18.05;;;;;;;14.23;67.35;100186.41;10338415;28;20064;-67
2021/10/19 14:51:40;;;;;;;24.05;17.52;;;;;;;14.12;67.29;100183.72;10341016;28;20060;-67
2021/10/19 14:56:42;;;;;;;25.42;19.88;;;;;;;14.28;67.13;100178.19;10337824;28;20144;-67
2021/10/19 15:01:44;;;;;;;20.75;16.40;;;;;;;14.30;66.97;100177.16;10341795;28;20360;-67
2021/10/19 15:06:45;;;;;;;20.40;16.70;;;;;;;14.36;67.33;100171.44;10335165;28;20141;-67
2021/10/19 15:11:47;;;;;;;25.70;16.98;;;;;;;14.30;67.27;100166.63;10340059;28;20046;-67
2021/10/19 15:16:49;;;;;;;28.27;20.88;;;;;;;14.20;67.89;100164.75;10343159;28;20558;-66
2021/10/19 15:21:51;;;;;;;30.45;21.00;;;;;;;14.11;68.09;100155.72;10342809;28;20046;-66
2021/10/19 15:26:52;;;;;;;36.75;23.48;;;;;;;14.09;68.34;100140.97;10345458;28;20049;-67
2021/10/19 15:31:54;;;;;;;33.80;24.88;;;;;;;14.06;68.43;100146.47;10343947;28;20402;-66
2021/10/19 15:36:56;;;;;;;32.45;22.27;;;;;;;14.07;68.76;100153.41;10343695;28;20058;-66
2021/10/19 15:41:58;;;;;;;33.67;22.73;;;;;;;14.04;68.90;100158.91;10342908;28;20053;-66
2021/10/19 15:47:01;;;;;;;37.28;23.00;;;;;;;14.00;68.68;100141.66;10342322;28;20060;-67
2021/10/19 15:52:03;;;;;;;33.28;22.35;;;;;;;13.88;68.32;100148.59;10342664;28;20627;-66
2021/10/19 15:57:05;;;;;;;44.45;27.92;;;;;;;13.75;68.57;100143.38;10344445;28;20060;-66
2021/10/19 16:02:07;;;;;;;69.75;37.50;;;;;;;13.64;69.04;100150.28;10342773;28;20057;-66
2021/10/19 16:07:11;;;;;;;154.80;49.50;;;;;;;13.47;69.07;100148.00;10342634;28;20057;-66
2021/10/19 16:12:13;;;;;;;47.92;28.08;;;;;;;13.27;69.15;100141.41;10340501;28;20064;-66
2021/10/19 16:17:15;;;;;;;49.78;29.40;;;;;;;13.08;69.38;100142.75;10343100;28;20141;-71
2021/10/19 16:22:16;;;;;;;32.25;22.58;;;;;;;12.92;69.62;100135.06;10341920;28;20062;-72
2021/10/19 16:27:19;;;;;;;37.65;25.40;;;;;;;12.77;69.91;100129.03;10342300;28;20142;-68
2021/10/19 16:32:20;;;;;;;40.67;25.40;;;;;;;12.64;70.18;100125.53;10341593;28;20433;-68
2021/10/19 16:37:22;;;;;;;815.55;76.50;;;;;;;12.58;70.34;100140.81;10342955;28;20053;-68
2021/10/19 16:42:24;;;;;;;152.07;25.85;;;;;;;12.42;70.36;100140.97;10343283;28;20590;-68
2021/10/19 16:47:26;;;;;;;134.63;26.20;;;;;;;12.47;70.26;100146.78;10344283;28;20058;-68
2021/10/19 16:52:27;;;;;;;139.98;45.70;;;;;;;12.51;70.34;100153.50;10342138;28;20516;-68
2021/10/19 16:57:29;;;;;;;521.38;66.00;;;;;;;12.61;70.53;100151.97;10344014;28;20053;-69
2021/10/19 17:02:31;;;;;;;283.30;52.22;;;;;;;12.68;70.43;100152.44;10343457;28;20054;-69
2021/10/19 17:07:34;;;;;;;689.83;77.35;;;;;;;12.76;70.46;100140.47;10343078;28;21270;-69
2021/10/19 17:12:35;;;;;;;303.33;47.47;;;;;;;12.79;70.40;100142.91;10342749;28;20077;-69
2021/10/19 17:17:37;;;;;;;434.45;51.35;;;;;;;12.79;70.50;100144.69;10343891;28;20862;-69
2021/10/19 17:22:39;;;;;;;689.25;80.35;;;;;;;12.80;70.46;100155.06;10349873;28;20049;-68
2021/10/19 17:27:40;;;;;;;592.10;69.95;;;;;;;12.82;70.59;100150.56;10349534;28;20081;-68
2021/10/19 17:32:42;;;;;;;573.47;66.05;;;;;;;12.86;70.66;100156.47;10350423;28;20049;-69
2021/10/19 17:37:44;;;;;;;656.40;72.82;;;;;;;12.85;70.49;100158.25;10350502;28;20049;-68
2021/10/19 17:42:46;;;;;;;410.90;57.60;;;;;;;12.82;70.28;100158.44;10349049;28;20058;-68
2021/10/19 17:47:48;;;;;;;528.80;63.75;;;;;;;12.84;70.13;100160.97;10349768;28;20526;-69
2021/10/19 17:52:51;;;;;;;467.75;61.85;;;;;;;12.81;70.35;100172.50;10349767;28;20045;-69
2021/10/19 17:57:53;;;;;;;441.15;63.40;;;;;;;12.79;69.83;100177.03;10349647;28;20410;-69
2021/10/19 18:02:55;;;;;;;328.35;59.55;;;;;;;12.76;70.14;100186.88;10349407;28;20050;-61
2021/10/19 18:07:57;;;;;;;464.67;64.78;;;;;;;12.68;70.00;100182.09;10349220;28;20153;-65
2021/10/19 18:12:59;;;;;;;369.75;76.50;;;;;;;12.52;69.82;100172.69;10346305;28;20407;-65
2021/10/19 18:18:03;;;;;;;341.95;70.93;;;;;;;12.45;69.89;100160.91;10348835;28;20954;-65
2021/10/19 18:23:08;;;;;;;415.63;60.85;;;;;;;12.35;69.83;100173.78;10348897;28;20196;-65
2021/10/19 18:28:12;;;;;;;305.67;61.92;;;;;;;12.30;69.86;100183.72;10348472;28;20050;-66
2021/10/19 18:33:13;;;;;;;468.73;54.67;;;;;;;12.24;69.87;100167.47;10347936;28;20053;-65
2021/10/19 18:38:15;;;;;;;924.75;83.50;;;;;;;12.13;70.16;100170.75;10347797;28;20053;-65
2021/10/19 18:43:17;;;;;;;333.55;46.22;;;;;;;12.10;70.47;100176.22;10348032;28;20052;-65
2021/10/19 18:48:19;;;;;;;311.98;55.08;;;;;;;12.19;70.30;100180.06;10347327;28;20510;-65
2021/10/19 18:53:22;;;;;;;165.35;38.10;;;;;;;12.24;70.16;100163.09;10347362;28;20519;-65
2021/10/19 18:58:26;;;;;;;304.35;49.55;;;;;;;12.27;69.94;100156.81;10345274;28;20081;-65
2021/10/19 19:03:27;;;;;;;249.43;42.30;;;;;;;12.13;70.20;100176.00;10346521;28;20413;-61
2021/10/19 19:08:29;;;;;;;361.90;58.58;;;;;;;12.10;70.34;100163.97;10346558;28;20060;-61
2021/10/19 19:13:31;;;;;;;199.45;37.65;;;;;;;12.07;70.23;100164.13;10345526;28;20143;-63
2021/10/19 19:18:33;;;;;;;317.33;45.20;;;;;;;12.14;70.26;100162.81;10345228;28;20050;-62
2021/10/19 19:23:35;;;;;;;390.08;48.00;;;;;;;12.20;69.87;100153.72;10344470;28;20045;-63
2021/10/19 19:28:37;;;;;;;239.73;31.50;;;;;;;12.19;70.00;100154.69;10346063;28;20064;-63
2021/10/19 19:33:39;;;;;;;385.10;47.50;;;;;;;12.05;70.06;100144.19;10346027;28;20057;-63
2021/10/19 19:38:41;;;;;;;436.83;49.03;;;;;;;11.98;70.22;100148.16;10345353;28;20046;-63
2021/10/19 19:43:43;;;;;;;546.28;58.00;;;;;;;11.89;70.47;100141.69;10344928;28;20061;-63
2021/10/19 19:48:45;;;;;;;569.40;60.33;;;;;;;11.94;70.46;100139.63;10344894;28;20059;-62
2021/10/19 19:53:47;;;;;;;249.05;34.60;;;;;;;11.83;70.61;100133.34;10342981;28;20057;-63
2021/10/19 19:58:48;;;;;;;341.30;36.58;;;;;;;11.85;70.46;100119.22;10345255;28;20053;-63
2021/10/19 20:03:50;;;;;;;436.08;40.33;;;;;;;11.83;70.18;100122.88;10344604;28;20073;-63
2021/10/19 20:08:52;;;;;;;341.27;35.58;;;;;;;11.77;70.27;100120.63;10344811;28;20053;-63
2021/10/19 20:13:55;;;;;;;228.98;27.65;;;;;;;11.72;70.29;100130.56;10342922;28;20053;-63
2021/10/19 20:18:56;;;;;;;212.73;33.08;;;;;;;11.69;70.04;100128.13;10341320;28;20116;-62
2021/10/19 20:23:59;;;;;;;224.02;29.58;;;;;;;11.65;69.96;100117.00;10340195;28;20050;-63
2021/10/19 20:29:01;;;;;;;218.70;28.95;;;;;;;11.57;69.97;100123.63;10341207;28;20485;-63
2021/10/19 20:34:03;;;;;;;269.65;26.23;;;;;;;11.48;70.02;100109.31;10343414;28;20052;-63
2021/10/19 20:39:06;;;;;;;397.20;27.02;;;;;;;11.45;70.35;100112.13;10342612;28;20045;-62
2021/10/19 20:44:08;;;;;;;388.48;19.98;;;;;;;11.37;70.28;100110.91;10340080;28;20052;-62
2021/10/19 20:49:10;;;;;;;641.72;27.38;;;;;;;11.27;70.29;100106.19;10339248;28;20406;-63
2021/10/19 20:54:12;;;;;;;723.17;28.80;;;;;;;11.12;70.46;100106.28;10344657;28;20149;-63
2021/10/19 20:59:13;;;;;;;388.02;16.90;;;;;;;11.17;70.35;100099.81;10349632;28;20054;-62
2021/10/19 21:04:15;;;;;;;880.85;42.55;;;;;;;11.06;70.00;100089.16;10348948;28;20145;-62
2021/10/19 21:09:17;;;;;;;452.42;23.13;;;;;;;11.01;70.37;100092.97;10347010;28;20065;-63
2021/10/19 21:14:19;;;;;;;734.92;28.10;;;;;;;10.92;70.21;100088.25;10347637;28;20053;-62
2021/10/19 21:19:20;;;;;;;513.85;23.75;;;;;;;10.77;70.53;100097.84;10348431;28;20042;-62
2021/10/19 21:24:22;;;;;;;561.28;22.98;;;;;;;10.86;70.52;100086.00;10349330;28;20054;-63
2021/10/19 21:29:24;;;;;;;364.77;18.48;;;;;;;10.88;70.31;100079.75;10347839;28;20075;-62
2021/10/19 21:34:29;;;;;;;342.83;15.98;;;;;;;10.83;70.24;100073.94;10348313;28;20387;-62
2021/10/19 21:39:31;;;;;;;799.70;33.70;;;;;;;10.78;70.11;100064.69;10348316;28;20827;-62
2021/10/19 21:44:34;;;;;;;996.60;40.00;;;;;;;10.63;70.10;100061.19;10348740;28;20046;-62
2021/10/19 21:49:36;;;;;;;726.67;28.88;;;;;;;10.54;70.21;100061.72;10347425;28;20104;-63
2021/10/19 21:54:37;;;;;;;309.75;15.57;;;;;;;10.49;70.37;100071.59;10349297;28;20065;-62
2021/10/19 21:59:39;;;;;;;302.70;16.70;;;;;;;10.57;70.20;100047.59;10348496;28;21069;-62
2021/10/19 22:04:43;;;;;;;243.80;19.30;;;;;;;10.55;69.90;100042.47;10348218;28;20052;-62
2021/10/19 22:09:45;;;;;;;379.45;34.65;;;;;;;10.52;69.58;100036.59;10347813;28;20062;-62
2021/10/19 22:14:46;;;;;;;187.80;19.73;;;;;;;10.41;69.70;100045.03;10347815;28;20068;-62
2021/10/19 22:19:48;;;;;;;290.88;19.42;;;;;;;10.41;69.82;100032.81;10347186;28;20056;-62
2021/10/19 22:29:54;;;;;;;448.73;19.20;;;;;;;10.45;69.81;100025.63;10347677;28;20058;-62
2021/10/19 22:34:56;;;;;;;531.47;23.35;;;;;;;10.43;69.50;100020.50;10346733;28;20068;-62
2021/10/19 22:39:57;;;;;;;584.25;28.67;;;;;;;10.42;69.53;100016.19;10346011;28;20054;-62
2021/10/19 22:44:59;;;;;;;379.75;21.58;;;;;;;10.40;69.53;100007.59;10346805;28;20062;-62